Time,TemperatureF,DewpointF,PressureIn,WindDirection,WindDirectionDegrees,WindSpeedMPH,WindSpeedGustMPH,Humidity,HourlyPrecipIn,Conditions,Clouds,dailyrainin,SoftwareType,DateUTC
2013-01-19 00:07:00,45.5,19.0,30.16,ESE,111,0.0,0.0,35,0.00,,,0.00,weatherlink.com 1.10,2013-01-19 07:07:00,
2013-01-19 00:22:00,44.4,19.0,30.16,ESE,102,0.0,1.0,37,0.00,,,0.00,weatherlink.com 1.10,2013-01-19 07:22:00,
2013-01-19 00:37:00,43.6,19.0,30.15,SE,128,1.0,3.0,37,0.00,,,0.00,weatherlink.com 1.10,2013-01-19 07:37:00,
2013-01-19 00:52:00,43.7,19.0,30.15,SSE,162,1.0,4.0,37,0.00,,,0.00,weatherlink.com 1.10,2013-01-19 07:52:00,
2013-01-19 01:07:00,44.4,18.0,30.16,SE,131,0.0,3.0,35,0.00,,,0.00,weatherlink.com 1.10,2013-01-19 08:07:00,
2013-01-19 01:22:00,44.5,18.0,30.16,ENE,72,0.0,2.0,35,0.00,,,0.00,weatherlink.com 1.10,2013-01-19 08:22:00,
2013-01-19 01:37:00,44.3,18.0,30.16,East,80,0.0,1.0,35,0.00,,,0.00,weatherlink.com 1.10,2013-01-19 08:37:00,
2013-01-19 01:52:00,43.2,18.0,30.16,SE,135,1.0,1.0,37,0.00,,,0.00,weatherlink.com 1.10,2013-01-19 08:52:00,
2013-01-19 02:07:00,43.2,18.0,30.16,ESE,105,2.0,2.0,37,0.00,,,0.00,weatherlink.com 1.10,2013-01-19 09:07:00,
2013-01-19 02:22:00,43.3,18.0,30.16,ESE,114,1.0,2.0,37,0.00,,,0.00,weatherlink.com 1.10,2013-01-19 09:22:00,
2013-01-19 02:37:00,42.3,18.0,30.16,East,98,0.0,1.0,38,0.00,,,0.00,weatherlink.com 1.10,2013-01-19 09:37:00,
2013-01-19 02:52:00,42.2,18.0,30.16,East,80,0.0,1.0,38,0.00,,,0.00,weatherlink.com 1.10,2013-01-19 09:52:00,
2013-01-19 03:07:00,41.9,18.0,30.16,East,81,0.0,1.0,39,0.00,,,0.00,weatherlink.com 1.10,2013-01-19 10:07:00,
2013-01-19 03:22:00,41.1,19.0,30.16,SE,131,0.0,1.0,41,0.00,,,0.00,weatherlink.com 1.10,2013-01-19 10:22:00,
2013-01-19 03:38:00,39.9,19.0,30.16,SE,131,0.0,0.0,43,0.00,,,0.00,weatherlink.com 1.10,2013-01-19 10:38:00,
2013-01-19 03:53:00,40.2,19.0,30.16,ESE,102,0.0,1.0,42,0.00,,,0.00,weatherlink.com 1.10,2013-01-19 10:53:00,
2013-01-19 04:08:00,42.4,17.0,30.16,SSE,162,0.0,1.0,36,0.00,,,0.00,weatherlink.com 1.10,2013-01-19 11:08:00,
2013-01-19 05:53:00,38.1,18.0,30.17,East,96,0.0,1.0,45,0.00,,,0.00,weatherlink.com 1.10,2013-01-19 12:53:00,
2013-01-19 06:08:00,38.0,18.0,30.17,SE,126,0.0,1.0,45,0.00,,,0.00,weatherlink.com 1.10,2013-01-19 13:08:00,
2013-01-19 06:23:00,37.9,18.0,30.17,East,101,0.0,1.0,45,0.00,,,0.00,weatherlink.com 1.10,2013-01-19 13:23:00,
2013-01-19 06:38:00,37.5,18.0,30.17,SE,125,0.0,1.0,46,0.00,,,0.00,weatherlink.com 1.10,2013-01-19 13:38:00,
2013-01-19 06:53:00,37.5,19.0,30.18,ESE,118,0.0,1.0,48,0.00,,,0.00,weatherlink.com 1.10,2013-01-19 13:53:00,
2013-01-19 07:08:00,36.9,19.0,30.19,North,8,1.0,1.0,49,0.00,,,0.00,weatherlink.com 1.10,2013-01-19 14:08:00,
2013-01-19 07:23:00,36.9,19.0,30.19,NE,34,0.0,1.0,48,0.00,,,0.00,weatherlink.com 1.10,2013-01-19 14:23:00,
2013-01-19 07:38:00,36.7,19.0,30.20,ENE,63,0.0,1.0,49,0.00,,,0.00,weatherlink.com 1.10,2013-01-19 14:38:00,
2013-01-19 07:53:00,38.7,20.0,30.20,ESE,108,0.0,1.0,47,0.00,,,0.00,weatherlink.com 1.10,2013-01-19 14:53:00,
2013-01-19 08:08:00,40.3,20.0,30.21,ESE,110,0.0,1.0,44,0.00,,,0.00,weatherlink.com 1.10,2013-01-19 15:08:00,
2013-01-19 08:23:00,42.1,19.0,30.21,East,96,0.0,1.0,40,0.00,,,0.00,weatherlink.com 1.10,2013-01-19 15:23:00,
2013-01-19 08:38:00,43.1,20.0,30.22,NE,56,1.0,2.0,40,0.00,,,0.00,weatherlink.com 1.10,2013-01-19 15:38:00,
2013-01-19 08:53:00,46.0,21.0,30.23,SSE,160,0.0,1.0,37,0.00,,,0.00,weatherlink.com 1.10,2013-01-19 15:53:00,
2013-01-19 09:08:00,48.9,21.0,30.23,ESE,113,0.0,1.0,34,0.00,,,0.00,weatherlink.com 1.10,2013-01-19 16:08:00,
2013-01-19 09:23:00,51.0,22.0,30.23,East,84,0.0,1.0,32,0.00,,,0.00,weatherlink.com 1.10,2013-01-19 16:23:00,
2013-01-19 09:38:00,52.5,22.0,30.24,NNW,333,0.0,1.0,30,0.00,,,0.00,weatherlink.com 1.10,2013-01-19 16:38:00,
2013-01-19 09:53:00,53.6,22.0,30.24,NNE,16,0.0,2.0,29,0.00,,,0.00,weatherlink.com 1.10,2013-01-19 16:53:00,
2013-01-19 10:24:00,57.4,22.0,30.24,NNE,33,0.0,2.0,25,0.00,,,0.00,weatherlink.com 1.10,2013-01-19 17:24:00,
2013-01-19 10:39:00,59.9,22.0,30.24,ENE,77,0.0,1.0,23,0.00,,,0.00,weatherlink.com 1.10,2013-01-19 17:39:00,
2013-01-19 11:09:00,63.6,22.0,30.22,WSW,250,0.0,1.0,20,0.00,,,0.00,weatherlink.com 1.10,2013-01-19 18:09:00,
2013-01-19 11:39:00,66.4,21.0,30.20,WNW,294,0.0,3.0,18,0.00,,,0.00,weatherlink.com 1.10,2013-01-19 18:39:00,
2013-01-19 11:54:00,66.6,20.0,30.19,NE,37,0.0,3.0,17,0.00,,,0.00,weatherlink.com 1.10,2013-01-19 18:54:00,
2013-01-19 12:24:00,69.4,21.0,30.17,WNW,283,0.0,3.0,16,0.00,,,0.00,weatherlink.com 1.10,2013-01-19 19:24:00,
2013-01-19 12:39:00,71.0,21.0,30.16,WNW,285,1.0,3.0,15,0.00,,,0.00,weatherlink.com 1.10,2013-01-19 19:39:00,
2013-01-19 12:54:00,71.9,20.0,30.15,North,6,3.0,3.0,14,0.00,,,0.00,weatherlink.com 1.10,2013-01-19 19:54:00,
2013-01-19 13:24:00,73.0,19.0,30.14,West,264,4.0,4.0,13,0.00,,,0.00,weatherlink.com 1.10,2013-01-19 20:24:00,
2013-01-19 13:39:00,73.5,16.0,30.13,WNW,291,4.0,4.0,11,0.00,,,0.00,weatherlink.com 1.10,2013-01-19 20:39:00,
2013-01-19 13:54:00,73.8,14.0,30.13,WNW,300,5.0,7.0,10,0.00,,,0.00,weatherlink.com 1.10,2013-01-19 20:54:00,
2013-01-19 14:09:00,74.6,17.0,30.12,NW,309,4.0,5.0,11,0.00,,,0.00,weatherlink.com 1.10,2013-01-19 21:09:00,
2013-01-19 14:24:00,75.2,17.0,30.12,WNW,298,5.0,6.0,11,0.00,,,0.00,weatherlink.com 1.10,2013-01-19 21:24:00,
2013-01-19 14:39:00,75.5,19.0,30.12,WNW,287,2.0,6.0,12,0.00,,,0.00,weatherlink.com 1.10,2013-01-19 21:39:00,
2013-01-19 14:54:00,76.1,22.0,30.12,West,271,4.0,6.0,13,0.00,,,0.00,weatherlink.com 1.10,2013-01-19 21:54:00,
2013-01-19 15:09:00,75.7,21.0,30.12,WNW,291,4.0,5.0,13,0.00,,,0.00,weatherlink.com 1.10,2013-01-19 22:09:00,
2013-01-19 15:24:00,75.7,21.0,30.12,WNW,284,2.0,7.0,13,0.00,,,0.00,weatherlink.com 1.10,2013-01-19 22:24:00,
2013-01-19 15:39:00,75.4,21.0,30.11,WNW,287,3.0,7.0,13,0.00,,,0.00,weatherlink.com 1.10,2013-01-19 22:39:00,
2013-01-19 15:54:00,75.1,23.0,30.11,NW,314,2.0,9.0,14,0.00,,,0.00,weatherlink.com 1.10,2013-01-19 22:54:00,
2013-01-19 16:24:00,74.1,25.0,30.11,WNW,287,2.0,7.0,16,0.00,,,0.00,weatherlink.com 1.10,2013-01-19 23:24:00,
2013-01-19 16:39:00,73.5,25.0,30.11,WNW,294,2.0,6.0,16,0.00,,,0.00,weatherlink.com 1.10,2013-01-19 23:39:00,
2013-01-19 16:55:00,72.7,25.0,30.11,WNW,282,2.0,5.0,17,0.00,,,0.00,weatherlink.com 1.10,2013-01-19 23:55:00,
2013-01-19 17:10:00,71.4,26.0,30.11,West,281,2.0,5.0,18,0.00,,,0.00,weatherlink.com 1.10,2013-01-20 00:10:00,
2013-01-19 17:25:00,70.2,26.0,30.11,WNW,297,2.0,6.0,19,0.00,,,0.00,weatherlink.com 1.10,2013-01-20 00:25:00,
2013-01-19 17:40:00,68.4,26.0,30.12,West,271,2.0,5.0,20,0.00,,,0.00,weatherlink.com 1.10,2013-01-20 00:40:00,
2013-01-19 17:55:00,66.4,25.0,30.12,WNW,285,2.0,5.0,21,0.00,,,0.00,weatherlink.com 1.10,2013-01-20 00:55:00,
2013-01-19 18:10:00,65.1,24.0,30.12,West,275,1.0,5.0,21,0.00,,,0.00,weatherlink.com 1.10,2013-01-20 01:10:00,
2013-01-19 18:25:00,63.7,25.0,30.13,WSW,243,2.0,2.0,23,0.00,,,0.00,weatherlink.com 1.10,2013-01-20 01:25:00,
2013-01-19 18:40:00,62.9,24.0,30.14,West,281,0.0,2.0,23,0.00,,,0.00,weatherlink.com 1.10,2013-01-20 01:40:00,
2013-01-19 18:55:00,62.2,25.0,30.14,WNW,287,0.0,1.0,24,0.00,,,0.00,weatherlink.com 1.10,2013-01-20 01:55:00,
2013-01-19 19:10:00,60.1,26.0,30.14,WNW,288,0.0,1.0,27,0.00,,,0.00,weatherlink.com 1.10,2013-01-20 02:10:00,
2013-01-19 19:25:00,59.1,25.0,30.14,ESE,113,0.0,1.0,27,0.00,,,0.00,weatherlink.com 1.10,2013-01-20 02:25:00,
2013-01-19 19:40:00,57.1,26.0,30.15,SW,226,0.0,0.0,30,0.00,,,0.00,weatherlink.com 1.10,2013-01-20 02:40:00,
2013-01-19 19:55:00,56.5,25.0,30.15,South,177,0.0,1.0,30,0.00,,,0.00,weatherlink.com 1.10,2013-01-20 02:55:00,
2013-01-19 20:10:00,57.0,25.0,30.15,WSW,240,3.0,4.0,29,0.00,,,0.00,weatherlink.com 1.10,2013-01-20 03:10:00,
2013-01-19 20:25:00,57.2,25.0,30.16,SSE,167,0.0,3.0,29,0.00,,,0.00,weatherlink.com 1.10,2013-01-20 03:25:00,
2013-01-19 20:40:00,56.6,25.0,30.17,East,95,0.0,1.0,30,0.00,,,0.00,weatherlink.com 1.10,2013-01-20 03:40:00,
2013-01-19 20:55:00,55.4,25.0,30.17,ESE,110,2.0,3.0,31,0.00,,,0.00,weatherlink.com 1.10,2013-01-20 03:55:00,
2013-01-19 21:10:00,54.6,25.0,30.17,ESE,121,1.0,3.0,32,0.00,,,0.00,weatherlink.com 1.10,2013-01-20 04:10:00,
2013-01-19 21:25:00,54.1,25.0,30.17,South,174,0.0,2.0,33,0.00,,,0.00,weatherlink.com 1.10,2013-01-20 04:25:00,
2013-01-19 21:40:00,53.6,25.0,30.17,SSW,194,1.0,3.0,33,0.00,,,0.00,weatherlink.com 1.10,2013-01-20 04:40:00,
2013-01-19 21:55:00,52.4,25.0,30.17,SSW,201,0.0,0.0,35,0.00,,,0.00,weatherlink.com 1.10,2013-01-20 04:55:00,
2013-01-19 22:10:00,50.8,25.0,30.17,East,91,0.0,1.0,37,0.00,,,0.00,weatherlink.com 1.10,2013-01-20 05:10:00,
2013-01-19 22:25:00,50.5,26.0,30.18,East,86,0.0,1.0,38,0.00,,,0.00,weatherlink.com 1.10,2013-01-20 05:25:00,
2013-01-19 22:40:00,50.4,25.0,30.17,SSE,155,1.0,3.0,38,0.00,,,0.00,weatherlink.com 1.10,2013-01-20 05:40:00,
2013-01-19 22:55:00,50.1,26.0,30.17,ESE,114,1.0,1.0,39,0.00,,,0.00,weatherlink.com 1.10,2013-01-20 05:55:00,
2013-01-19 23:10:00,50.3,25.0,30.17,SE,124,2.0,3.0,38,0.00,,,0.00,weatherlink.com 1.10,2013-01-20 06:10:00,
2013-01-19 23:25:00,50.0,25.0,30.17,ESE,108,1.0,2.0,38,0.00,,,0.00,weatherlink.com 1.10,2013-01-20 06:25:00,
2013-01-19 23:40:00,49.7,24.0,30.17,ESE,107,0.0,2.0,37,0.00,,,0.00,weatherlink.com 1.10,2013-01-20 06:40:00,
2013-01-19 23:56:00,49.0,24.0,30.17,ESE,117,2.0,2.0,38,0.00,,,0.00,weatherlink.com 1.10,2013-01-20 06:56:00,